createdAt,value
2019-01-18T00:01:01.254Z,1.57
2019-01-18T00:03:32.604Z,2.00
2019-01-18T00:06:08.974Z,1.43
2019-01-18T00:08:41.533Z,1.90
2019-01-18T00:11:13.956Z,2.43
2019-01-18T00:13:46.196Z,2.37
2019-01-18T00:16:18.759Z,7.90
2019-01-18T00:18:51.185Z,3.57
2019-01-18T00:21:23.470Z,1.70
2019-01-18T00:23:55.763Z,1.47
2019-01-18T00:26:27.971Z,1.37
2019-01-18T00:29:02.846Z,1.57
2019-01-18T00:31:35.998Z,1.40
2019-01-18T00:34:07.125Z,1.10
2019-01-18T00:36:40.509Z,1.17
2019-01-18T00:39:13.882Z,1.13
2019-01-18T00:41:46.323Z,1.10
2019-01-18T00:44:18.472Z,0.90
2019-01-18T00:46:50.693Z,1.17
2019-01-18T00:49:22.979Z,1.00
2019-01-18T00:51:55.226Z,1.10
2019-01-18T00:54:38.338Z,0.80
2019-01-18T00:57:11.817Z,0.60
2019-01-18T00:59:46.262Z,0.70
2019-01-18T01:02:19.692Z,0.60
2019-01-18T01:04:51.274Z,0.70
2019-01-18T01:07:24.529Z,0.80
2019-01-18T01:09:56.774Z,0.50
2019-01-18T01:12:29.104Z,0.60
2019-01-18T01:15:01.544Z,0.60
2019-01-18T01:17:33.833Z,0.60
2019-01-18T01:20:06.559Z,0.50
2019-01-18T01:22:38.777Z,0.57
2019-01-18T01:25:11.996Z,0.87
2019-01-18T01:27:44.321Z,0.57
2019-01-18T01:30:18.279Z,0.70
2019-01-18T01:32:50.536Z,0.93
2019-01-18T01:35:22.984Z,0.50
2019-01-18T01:37:55.235Z,0.50
2019-01-18T01:40:28.373Z,0.40
2019-01-18T01:43:00.797Z,0.50
2019-01-18T01:45:33.232Z,0.50
2019-01-18T01:48:05.578Z,0.50
2019-01-18T01:50:38.174Z,0.50
2019-01-18T01:53:10.334Z,0.60
2019-01-18T01:55:44.669Z,0.60
2019-01-18T01:58:18.078Z,0.80
2019-01-18T02:00:49.309Z,0.50
2019-01-18T02:03:22.747Z,0.60
2019-01-18T02:05:53.842Z,0.60
2019-01-18T02:08:27.428Z,0.60
2019-01-18T02:11:00.018Z,0.80
2019-01-18T02:13:32.468Z,0.63
2019-01-18T02:16:04.776Z,0.70
2019-01-18T02:18:37.180Z,0.70
2019-01-18T02:21:09.170Z,0.70
2019-01-18T02:23:41.705Z,0.80
2019-01-18T02:26:13.974Z,0.70
2019-01-18T02:28:46.231Z,1.10
2019-01-18T02:31:18.485Z,1.10
2019-01-18T02:33:51.042Z,0.80
2019-01-18T02:36:23.243Z,1.17
2019-01-18T02:38:55.526Z,1.07
2019-01-18T02:41:27.825Z,0.87
2019-01-18T02:44:00.332Z,0.70
2019-01-18T02:46:32.673Z,1.00
2019-01-18T02:49:05.112Z,1.13
2019-01-18T02:51:37.441Z,0.90
2019-01-18T02:54:09.705Z,1.00
2019-01-18T02:56:43.967Z,1.00
2019-01-18T02:59:17.311Z,1.27
2019-01-18T03:01:48.686Z,1.10
2019-01-18T03:04:28.302Z,1.20
2019-01-18T03:07:00.437Z,0.80
2019-01-18T03:09:33.946Z,0.90
2019-01-18T03:12:05.440Z,1.20
2019-01-18T03:14:38.706Z,1.27
2019-01-18T03:17:10.183Z,1.30
2019-01-18T03:19:43.545Z,1.07
2019-01-18T03:22:15.122Z,1.40
2019-01-18T03:24:48.431Z,1.23
2019-01-18T03:27:19.686Z,1.10
2019-01-18T03:29:52.950Z,1.10
2019-01-18T03:32:24.263Z,1.30
2019-01-18T03:34:57.635Z,1.50
2019-01-18T03:37:28.944Z,1.23
2019-01-18T03:40:02.331Z,1.20
2019-01-18T03:42:33.516Z,1.17
2019-01-18T03:45:07.296Z,1.40
2019-01-18T03:47:38.617Z,1.30
2019-01-18T03:50:13.540Z,1.50
2019-01-18T03:52:44.763Z,1.97
2019-01-18T03:55:18.199Z,2.20
2019-01-18T03:57:49.341Z,2.50
2019-01-18T04:00:26.327Z,1.60
2019-01-18T04:02:56.462Z,1.60
2019-01-18T04:05:29.842Z,1.33
2019-01-18T04:08:00.968Z,1.57
2019-01-18T04:10:34.486Z,1.33
2019-01-18T04:13:05.826Z,2.10
2019-01-18T04:15:39.197Z,2.27
2019-01-18T04:18:10.768Z,2.10
2019-01-18T04:20:44.097Z,2.17
2019-01-18T04:23:15.596Z,2.80
2019-01-18T04:25:49.151Z,1.37
2019-01-18T04:28:20.528Z,1.97
2019-01-18T04:30:54.251Z,1.70
2019-01-18T04:33:25.818Z,1.13
2019-01-18T04:35:59.137Z,1.20
2019-01-18T04:38:30.238Z,1.37
2019-01-18T04:41:03.654Z,1.30
2019-01-18T04:43:34.778Z,1.47
2019-01-18T04:46:08.212Z,1.63
2019-01-18T04:48:39.854Z,1.90
2019-01-18T04:51:13.207Z,1.63
2019-01-18T04:53:46.428Z,1.60
2019-01-18T04:56:18.830Z,1.63
2019-01-18T04:58:50.850Z,1.80
2019-01-18T05:01:23.216Z,1.73
2019-01-18T05:03:55.504Z,1.70
2019-01-18T05:06:27.598Z,1.83
2019-01-18T05:08:59.115Z,1.63
2019-01-18T05:11:32.807Z,1.93
2019-01-18T05:14:04.318Z,1.97
2019-01-18T05:16:37.944Z,1.80
2019-01-18T05:19:09.227Z,2.60
2019-01-18T05:21:42.603Z,2.20
2019-01-18T05:24:13.929Z,1.90
2019-01-18T05:26:47.369Z,2.70
2019-01-18T05:29:19.094Z,2.50
2019-01-18T05:31:52.574Z,2.40
2019-01-18T05:34:23.877Z,2.50
2019-01-18T05:36:56.940Z,1.87
2019-01-18T05:39:28.220Z,2.63
2019-01-18T05:42:01.375Z,2.60
2019-01-18T05:44:32.789Z,2.40
2019-01-18T05:47:06.124Z,3.80
2019-01-18T05:49:37.449Z,4.00
2019-01-18T05:52:10.736Z,3.57
2019-01-18T05:54:41.855Z,3.57
2019-01-18T05:57:15.110Z,2.80
2019-01-18T05:59:50.430Z,2.57
2019-01-18T06:02:23.402Z,3.17
2019-01-18T06:04:55.043Z,2.90
2019-01-18T06:07:29.472Z,3.60
2019-01-18T06:10:03.937Z,3.47
2019-01-18T06:12:37.387Z,4.13
2019-01-18T06:15:08.687Z,3.70
2019-01-18T06:17:41.728Z,4.07
2019-01-18T06:20:13.393Z,2.90
2019-01-18T06:22:46.694Z,4.00
2019-01-18T06:25:18.037Z,3.73
2019-01-18T06:27:52.272Z,3.53
2019-01-18T06:30:23.916Z,3.60
2019-01-18T06:32:57.214Z,4.33
2019-01-18T06:35:28.451Z,3.90
2019-01-18T06:38:01.833Z,5.37
2019-01-18T06:40:34.202Z,4.40
2019-01-18T06:43:06.761Z,4.77
2019-01-18T06:45:39.220Z,3.90
2019-01-18T06:48:13.045Z,3.30
2019-01-18T06:50:45.257Z,3.63
2019-01-18T06:53:17.770Z,5.03
2019-01-18T06:55:52.041Z,33.30
2019-01-18T06:58:26.440Z,12.00
2019-01-18T07:01:00.497Z,6.40
2019-01-18T07:03:34.436Z,5.20
2019-01-18T07:06:05.680Z,4.53
2019-01-18T07:08:38.981Z,4.93
2019-01-18T07:11:12.179Z,5.53
2019-01-18T07:13:44.562Z,11.90
2019-01-18T07:16:16.875Z,6.00
2019-01-18T07:18:49.322Z,6.20
2019-01-18T07:21:21.776Z,12.97
2019-01-18T07:23:54.044Z,5.33
2019-01-18T07:26:26.351Z,4.47
2019-01-18T07:28:58.872Z,5.50
2019-01-18T07:31:31.262Z,3.80
2019-01-18T07:34:03.755Z,4.60
2019-01-18T07:36:36.209Z,4.07
2019-01-18T07:39:09.004Z,4.87
2019-01-18T07:41:41.220Z,7.33
2019-01-18T07:44:13.458Z,15.00
2019-01-18T07:46:45.902Z,23.90
2019-01-18T07:49:18.211Z,33.70
2019-01-18T07:51:50.295Z,24.40
2019-01-18T07:54:22.777Z,22.47
2019-01-18T07:56:57.350Z,28.50
2019-01-18T07:59:31.599Z,35.70
2019-01-18T08:02:05.867Z,6.70
2019-01-18T08:04:39.138Z,5.20
2019-01-18T08:07:10.404Z,5.50
2019-01-18T08:09:44.028Z,5.50
2019-01-18T08:12:16.420Z,5.20
2019-01-18T08:14:49.052Z,6.50
2019-01-18T08:17:21.425Z,11.23
2019-01-18T08:19:53.840Z,14.60
2019-01-18T08:22:26.055Z,7.23
2019-01-18T08:24:58.124Z,5.30
2019-01-18T08:27:30.492Z,4.97
2019-01-18T08:30:02.938Z,4.73
2019-01-18T08:32:35.452Z,19.17
2019-01-18T08:35:08.007Z,11.57
2019-01-18T08:37:40.319Z,11.30
2019-01-18T08:40:14.003Z,10.33
2019-01-18T08:42:46.683Z,9.80
2019-01-18T08:45:20.950Z,10.30
2019-01-18T08:47:53.163Z,9.07
2019-01-18T08:50:25.523Z,9.47
2019-01-18T08:52:58.048Z,8.60
2019-01-18T08:55:30.492Z,13.93
2019-01-18T08:58:02.958Z,14.40
2019-01-18T09:00:35.276Z,6.23
2019-01-18T09:03:07.934Z,6.00
2019-01-18T09:05:40.387Z,5.10
2019-01-18T09:08:12.628Z,3.70
2019-01-18T09:10:45.001Z,3.03
2019-01-18T09:13:18.449Z,3.20
2019-01-18T09:15:50.877Z,2.13
2019-01-18T09:18:23.147Z,2.07
2019-01-18T09:20:56.477Z,2.00
2019-01-18T09:23:29.730Z,1.80
2019-01-18T09:26:02.094Z,1.93
2019-01-18T09:28:34.489Z,2.20
2019-01-18T09:31:06.755Z,1.93
2019-01-18T09:33:39.214Z,2.20
2019-01-18T09:36:11.476Z,4.10
2019-01-18T09:38:43.739Z,2.80
2019-01-18T09:41:17.124Z,10.20
2019-01-18T09:43:48.772Z,3.00
2019-01-18T09:46:22.000Z,2.17
2019-01-18T09:48:53.218Z,2.20
2019-01-18T09:51:26.840Z,2.60
2019-01-18T09:53:58.178Z,2.97
2019-01-18T09:56:31.385Z,2.83
2019-01-18T09:59:02.848Z,2.93
2019-01-18T10:01:36.222Z,2.50
2019-01-18T10:04:07.505Z,2.67
2019-01-18T10:06:41.014Z,2.23
2019-01-18T10:09:12.195Z,1.60
2019-01-18T10:11:45.707Z,1.63
2019-01-18T10:14:17.158Z,2.00
2019-01-18T10:16:50.644Z,1.97
2019-01-18T10:19:21.804Z,1.10
2019-01-18T10:21:55.170Z,1.40
2019-01-18T10:24:26.358Z,1.50
2019-01-18T10:26:59.529Z,1.40
2019-01-18T10:29:30.938Z,1.90
2019-01-18T10:32:04.703Z,2.23
2019-01-18T10:34:36.138Z,2.10
2019-01-18T10:37:09.872Z,2.80
2019-01-18T10:39:41.066Z,2.20
2019-01-18T10:42:14.565Z,2.30
2019-01-18T10:44:46.023Z,2.53
2019-01-18T10:47:19.401Z,2.83
2019-01-18T10:49:50.747Z,3.07
2019-01-18T10:52:24.016Z,3.03
2019-01-18T10:54:55.294Z,2.70
2019-01-18T10:57:28.764Z,2.23
2019-01-18T11:00:00.081Z,3.20
2019-01-18T11:02:34.077Z,4.57
2019-01-18T11:05:05.415Z,2.10
2019-01-18T11:07:38.690Z,1.97
2019-01-18T11:10:10.643Z,2.70
2019-01-18T11:12:44.150Z,2.60
2019-01-18T11:15:16.140Z,2.30
2019-01-18T11:17:49.479Z,2.23
2019-01-18T11:20:22.046Z,2.33
2019-01-18T11:22:55.822Z,1.50
2019-01-18T11:25:31.785Z,2.80
2019-01-18T11:28:05.623Z,2.00
2019-01-18T11:30:39.934Z,2.30
2019-01-18T11:33:13.139Z,3.17
2019-01-18T11:35:44.605Z,1.80
2019-01-18T11:38:41.525Z,2.07
2019-01-18T11:41:13.702Z,2.10
2019-01-18T11:43:46.085Z,1.90
2019-01-18T11:46:18.355Z,1.20
2019-01-18T11:48:50.579Z,0.97
2019-01-18T11:51:22.903Z,1.20
2019-01-18T11:53:55.152Z,0.97
2019-01-18T11:56:27.756Z,0.83
2019-01-18T11:58:59.903Z,1.00
2019-01-18T12:01:32.073Z,1.10
2019-01-18T12:04:04.537Z,1.20
2019-01-18T12:06:36.873Z,1.10
2019-01-18T12:09:10.389Z,1.10
2019-01-18T12:11:44.641Z,1.40
2019-01-18T12:14:18.017Z,1.73
2019-01-18T12:16:49.174Z,1.57
2019-01-18T12:19:22.357Z,1.70
2019-01-18T12:21:53.488Z,1.60
2019-01-18T12:24:27.882Z,1.70
2019-01-18T12:26:59.357Z,1.43
2019-01-18T12:29:33.162Z,1.90
2019-01-18T12:32:04.712Z,1.70
2019-01-18T12:34:38.798Z,1.97
2019-01-18T12:37:10.299Z,1.90
2019-01-18T12:39:43.756Z,1.93
2019-01-18T12:42:16.361Z,2.00
2019-01-18T12:44:48.740Z,1.83
2019-01-18T12:47:20.965Z,1.97
2019-01-18T12:49:53.282Z,2.53
2019-01-18T12:52:25.557Z,1.90
2019-01-18T12:54:57.861Z,2.33
2019-01-18T12:57:32.305Z,2.73
2019-01-18T13:00:07.325Z,1.90
2019-01-18T13:02:38.737Z,1.63
2019-01-18T13:05:13.242Z,2.40
2019-01-18T13:07:44.793Z,2.30
2019-01-18T13:10:19.284Z,2.30
2019-01-18T13:12:51.603Z,2.00
2019-01-18T13:15:35.658Z,2.10
2019-01-18T13:18:08.074Z,2.17
2019-01-18T13:20:40.387Z,2.20
2019-01-18T13:23:12.824Z,3.00
2019-01-18T13:25:45.126Z,1.97
2019-01-18T13:28:17.492Z,2.30
2019-01-18T13:30:49.935Z,2.37
2019-01-18T13:33:21.919Z,2.73
2019-01-18T13:35:54.380Z,2.90
2019-01-18T13:38:26.600Z,2.70
2019-01-18T13:40:58.810Z,2.93
2019-01-18T13:43:31.163Z,3.20
2019-01-18T13:46:03.588Z,3.30
2019-01-18T13:48:35.859Z,3.50
2019-01-18T13:51:08.477Z,2.50
2019-01-18T13:53:40.668Z,2.97
2019-01-18T13:56:13.214Z,5.43
2019-01-18T13:58:47.542Z,3.13
2019-01-18T14:01:20.861Z,2.80
2019-01-18T14:03:52.499Z,4.80
2019-01-18T14:06:25.928Z,2.90
2019-01-18T14:08:57.468Z,4.20
2019-01-18T14:11:30.793Z,3.67
2019-01-18T14:14:03.519Z,3.50
2019-01-18T14:16:36.006Z,4.37
2019-01-18T14:19:08.387Z,3.90
2019-01-18T14:21:40.746Z,2.90
2019-01-18T14:24:13.248Z,2.67
2019-01-18T14:26:45.506Z,3.10
2019-01-18T14:29:17.900Z,2.57
2019-01-18T14:31:50.250Z,3.50
2019-01-18T14:34:22.229Z,3.83
2019-01-18T14:36:54.382Z,2.77
2019-01-18T14:39:26.646Z,3.60
2019-01-18T14:41:58.909Z,2.90
2019-01-18T14:44:31.253Z,3.30
2019-01-18T14:47:03.504Z,3.03
2019-01-18T14:49:35.906Z,3.23
2019-01-18T14:52:08.057Z,3.20
2019-01-18T14:54:40.414Z,4.00
2019-01-18T14:57:13.816Z,3.53
2019-01-18T14:59:46.022Z,2.80
2019-01-18T15:02:18.083Z,3.40
2019-01-18T15:04:50.353Z,3.93
2019-01-18T15:07:22.690Z,3.10
2019-01-18T15:09:57.604Z,3.53
2019-01-18T15:12:30.032Z,3.70
2019-01-18T15:15:01.599Z,3.67
2019-01-18T15:17:35.029Z,4.17
2019-01-18T15:20:07.098Z,4.53
2019-01-18T15:22:40.550Z,4.50
2019-01-18T15:25:12.952Z,4.83
2019-01-18T15:27:46.594Z,3.50
2019-01-18T15:30:19.222Z,4.00
2019-01-18T15:32:52.557Z,3.60
2019-01-18T15:35:28.079Z,4.67
2019-01-18T15:38:02.219Z,4.40
2019-01-18T15:40:35.675Z,4.20
2019-01-18T15:43:09.148Z,3.77
2019-01-18T15:45:40.558Z,6.30
2019-01-18T15:48:13.780Z,5.70
2019-01-18T15:50:45.163Z,3.53
2019-01-18T15:53:18.511Z,3.97
2019-01-18T15:55:49.854Z,5.00
2019-01-18T15:58:23.232Z,5.03
2019-01-18T16:00:54.465Z,3.70
2019-01-18T16:03:27.924Z,4.40
2019-01-18T16:05:59.683Z,3.40
2019-01-18T16:08:33.258Z,3.40
2019-01-18T16:11:04.840Z,3.43
2019-01-18T16:13:38.695Z,4.37
2019-01-18T16:16:15.326Z,4.20
2019-01-18T16:18:48.865Z,4.27
2019-01-18T16:21:20.191Z,4.60
2019-01-18T16:23:53.350Z,4.13
2019-01-18T16:26:25.266Z,4.40
2019-01-18T16:28:58.597Z,12.57
2019-01-18T16:31:30.091Z,6.47
2019-01-18T16:34:03.779Z,7.60
2019-01-18T16:36:35.287Z,7.57
2019-01-18T16:39:10.595Z,12.37
2019-01-18T16:41:42.040Z,9.63
2019-01-18T16:44:15.301Z,7.47
2019-01-18T16:46:46.500Z,10.03
2019-01-18T16:49:20.006Z,9.33
2019-01-18T16:51:51.288Z,11.70
2019-01-18T16:54:24.569Z,12.20
2019-01-18T16:56:55.916Z,12.73
2019-01-18T16:59:29.209Z,10.63
2019-01-18T17:02:00.505Z,10.17
2019-01-18T17:04:34.033Z,11.57
2019-01-18T17:07:05.469Z,10.60
2019-01-18T17:09:38.825Z,11.57
2019-01-18T17:12:10.211Z,15.00
2019-01-18T17:14:43.578Z,27.77
2019-01-18T17:17:14.887Z,25.55
2019-01-18T17:19:48.345Z,25.07
2019-01-18T17:22:20.439Z,18.93
2019-01-18T17:24:54.021Z,15.23
2019-01-18T17:27:25.246Z,16.53
2019-01-18T17:29:58.834Z,12.70
2019-01-18T17:32:30.294Z,13.10
2019-01-18T17:35:03.639Z,16.40
2019-01-18T17:37:37.199Z,10.70
2019-01-18T17:40:12.793Z,8.90
2019-01-18T17:43:03.218Z,6.30
2019-01-18T17:46:01.608Z,5.17
2019-01-18T17:48:35.449Z,4.87
2019-01-18T17:51:18.797Z,3.10
2019-01-18T17:54:21.120Z,3.90
2019-01-18T17:57:22.542Z,3.27
2019-01-18T18:00:13.674Z,3.30
2019-01-18T18:02:59.422Z,4.13
2019-01-18T18:05:40.567Z,3.77
2019-01-18T18:08:37.982Z,5.20
2019-01-18T18:11:25.832Z,4.40
2019-01-18T18:14:29.248Z,5.23
2019-01-18T18:17:22.596Z,4.97
2019-01-18T18:20:20.688Z,4.60
2019-01-18T18:23:13.658Z,4.60
2019-01-18T18:26:08.622Z,7.60
2019-01-18T18:28:57.916Z,6.00
2019-01-18T18:31:50.005Z,5.80
2019-01-18T18:34:50.463Z,6.73
2019-01-18T18:37:44.929Z,5.80
2019-01-18T18:40:23.021Z,5.90
2019-01-18T18:43:06.471Z,5.00
2019-01-18T18:45:46.378Z,4.23
2019-01-18T18:48:26.226Z,4.00
2019-01-18T18:51:19.555Z,4.40
2019-01-18T18:54:04.290Z,3.27
2019-01-18T18:56:55.214Z,3.97
2019-01-18T18:59:41.083Z,3.70
2019-01-18T19:02:44.242Z,3.70
2019-01-18T19:05:35.674Z,3.37
2019-01-18T19:08:42.317Z,3.60
2019-01-18T19:11:34.069Z,4.33
2019-01-18T19:14:31.163Z,4.10
2019-01-18T19:17:17.261Z,3.80
2019-01-18T19:20:08.938Z,4.37
2019-01-18T19:23:02.644Z,5.20
2019-01-18T19:25:55.791Z,4.20
2019-01-18T19:28:44.628Z,4.20
2019-01-18T19:31:35.764Z,4.20
2019-01-18T19:34:35.915Z,4.00
2019-01-18T19:37:29.125Z,4.30
2019-01-18T19:40:07.151Z,3.70
2019-01-18T19:43:09.189Z,4.57
2019-01-18T19:46:00.002Z,4.73
2019-01-18T19:48:54.273Z,3.93
2019-01-18T19:51:44.370Z,3.83
2019-01-18T19:54:35.417Z,3.00
2019-01-18T19:57:38.649Z,3.30
2019-01-18T20:00:41.061Z,3.60
2019-01-18T20:03:42.516Z,3.30
2019-01-18T20:06:41.987Z,2.90
2019-01-18T20:09:22.749Z,3.50
2019-01-18T20:12:05.164Z,2.47
2019-01-18T20:14:55.271Z,3.30
2019-01-18T20:17:59.709Z,3.33
2019-01-18T20:20:45.507Z,2.80
2019-01-18T20:23:25.472Z,3.00
2019-01-18T20:26:24.466Z,3.67
2019-01-18T20:29:08.175Z,3.23
2019-01-18T20:32:14.132Z,4.20
2019-01-18T20:35:15.870Z,4.17
2019-01-18T20:37:53.256Z,3.57
2019-01-18T20:40:44.905Z,3.20
2019-01-18T20:43:20.493Z,3.20
2019-01-18T20:46:19.569Z,3.23
2019-01-18T20:49:10.611Z,3.30
2019-01-18T20:52:06.563Z,3.13
2019-01-18T20:54:52.731Z,3.10
2019-01-18T20:57:44.916Z,3.17
2019-01-18T21:00:24.002Z,3.33
2019-01-18T21:03:18.443Z,3.67
2019-01-18T21:06:12.450Z,4.30
2019-01-18T21:09:14.371Z,3.90
2019-01-18T21:12:11.498Z,3.43
2019-01-18T21:15:02.940Z,3.67
2019-01-18T21:17:57.075Z,3.60
2019-01-18T21:20:35.690Z,4.57
2019-01-18T21:23:24.688Z,4.60
2019-01-18T21:26:17.111Z,3.70
2019-01-18T21:29:07.312Z,3.60
2019-01-18T21:32:14.565Z,3.63
2019-01-18T21:35:07.686Z,4.33
2019-01-18T21:38:06.112Z,3.67
2019-01-18T21:40:53.157Z,4.13
2019-01-18T21:43:44.287Z,3.03
2019-01-18T21:46:34.555Z,2.87
2019-01-18T21:49:12.602Z,2.33
2019-01-18T21:52:09.235Z,2.90
2019-01-18T21:55:01.506Z,3.03
2019-01-18T21:57:57.012Z,4.17
2019-01-18T22:00:44.962Z,3.40
2019-01-18T22:03:37.598Z,3.23
2019-01-18T22:06:34.732Z,3.00
2019-01-18T22:09:12.366Z,3.40
2019-01-18T22:11:51.436Z,3.23
2019-01-18T22:14:51.738Z,3.50
2019-01-18T22:17:28.725Z,3.47
2019-01-18T22:20:15.794Z,3.13
2019-01-18T22:23:18.121Z,3.20
2019-01-18T22:26:28.502Z,3.30
2019-01-18T22:29:15.207Z,3.37
2019-01-18T22:32:01.406Z,3.20
2019-01-18T22:34:47.797Z,3.50
2019-01-18T22:37:41.867Z,3.00
2019-01-18T22:40:32.178Z,2.37
2019-01-18T22:43:21.971Z,2.77
2019-01-18T22:46:19.281Z,2.93
2019-01-18T22:48:55.701Z,2.87
2019-01-18T22:51:48.115Z,2.73
2019-01-18T22:54:34.742Z,3.30
2019-01-18T22:57:19.976Z,3.27
2019-01-18T23:00:02.669Z,3.50
2019-01-18T23:02:41.513Z,3.00
2019-01-18T23:05:35.714Z,2.70
2019-01-18T23:08:36.268Z,3.43
2019-01-18T23:11:33.672Z,3.30
2019-01-18T23:14:28.058Z,3.20
2019-01-18T23:17:16.234Z,3.30
2019-01-18T23:20:16.213Z,3.80
2019-01-18T23:22:57.940Z,3.40
2019-01-18T23:26:02.323Z,3.73
2019-01-18T23:28:38.360Z,4.10
2019-01-18T23:31:23.968Z,4.10
2019-01-18T23:34:21.153Z,2.93
2019-01-18T23:37:00.301Z,2.93
2019-01-18T23:39:48.946Z,3.83
2019-01-18T23:42:36.479Z,3.20
2019-01-18T23:45:32.568Z,4.60
2019-01-18T23:48:17.670Z,3.50
2019-01-18T23:51:10.814Z,2.87
2019-01-18T23:53:52.159Z,3.80
2019-01-18T23:56:46.533Z,3.43
2019-01-18T23:59:42.716Z,3.13
